createdAt,value
2018-01-31T01:52:28.645Z,81.51
2018-01-31T01:54:57.973Z,81.43
2018-01-31T01:57:23.887Z,81.57
2018-01-31T01:59:53.644Z,81.87
2018-01-31T02:02:19.559Z,81.95
2018-01-31T02:04:46.721Z,82.17
2018-01-31T02:07:12.677Z,82.26
2018-01-31T02:09:41.823Z,82.34
2018-01-31T02:12:07.782Z,82.64
2018-01-31T02:14:37.166Z,82.72
2018-01-31T02:17:03.070Z,82.55
2018-01-31T02:19:29.198Z,82.49
2018-01-31T02:21:55.242Z,82.03
2018-01-31T02:24:21.181Z,82.05
2018-01-31T02:26:47.553Z,81.86
2018-01-31T02:29:13.477Z,81.72
2018-01-31T02:31:42.345Z,81.37
2018-01-31T02:34:08.264Z,81.13
2018-01-31T02:36:37.740Z,81.50
2018-01-31T02:39:16.137Z,81.51
2018-01-31T02:41:42.048Z,81.51
2018-01-31T02:44:08.000Z,81.72
2018-01-31T02:46:33.927Z,81.75
2018-01-31T02:48:59.845Z,81.51
2018-01-31T02:51:25.750Z,81.50
2018-01-31T02:53:51.684Z,81.65
2018-01-31T02:56:17.604Z,81.56
2018-01-31T02:58:43.511Z,81.75
2018-01-31T03:01:09.465Z,81.48
2018-01-31T03:03:35.438Z,80.72
2018-01-31T03:06:01.417Z,80.83
2018-01-31T03:08:27.675Z,80.55
2018-01-31T03:10:53.600Z,80.60
2018-01-31T03:13:22.382Z,80.60
2018-01-31T03:15:48.312Z,80.40
2018-01-31T03:18:17.897Z,80.16
2018-01-31T03:20:43.868Z,79.72
2018-01-31T03:23:13.240Z,79.76
2018-01-31T03:25:39.211Z,79.98
2018-01-31T03:28:06.498Z,79.69
2018-01-31T03:30:32.419Z,79.74
2018-01-31T03:32:58.381Z,78.86
2018-01-31T03:35:24.315Z,78.75
2018-01-31T03:37:50.203Z,78.84
2018-01-31T03:40:19.640Z,78.40
2018-01-31T03:42:45.547Z,78.53
2018-01-31T03:45:14.603Z,78.03
2018-01-31T03:47:41.170Z,77.89
2018-01-31T03:50:07.609Z,77.89
2018-01-31T03:52:33.524Z,78.16
2018-01-31T03:55:02.490Z,78.62
2018-01-31T03:57:28.412Z,78.83
2018-01-31T03:59:57.945Z,79.47
2018-01-31T04:02:23.886Z,79.48
2018-01-31T04:04:53.430Z,79.34
2018-01-31T04:07:19.330Z,79.68
2018-01-31T04:09:45.277Z,79.61
2018-01-31T04:12:11.553Z,79.20
2018-01-31T04:14:37.486Z,79.53
2018-01-31T04:17:03.419Z,79.36
2018-01-31T04:19:29.329Z,78.97
2018-01-31T04:21:58.334Z,78.55
2018-01-31T04:24:24.254Z,78.51
2018-01-31T04:26:52.975Z,78.23
2018-01-31T04:29:18.909Z,77.93
2018-01-31T04:31:47.597Z,77.35
2018-01-31T04:34:13.534Z,77.61
2018-01-31T04:36:43.136Z,77.99
2018-01-31T04:39:09.061Z,77.66
2018-01-31T04:41:38.247Z,77.80
2018-01-31T04:44:04.215Z,78.19
2018-01-31T04:46:30.137Z,78.20
2018-01-31T04:48:56.094Z,78.43
2018-01-31T04:51:22.043Z,78.08
2018-01-31T04:53:49.269Z,78.27
2018-01-31T04:56:15.201Z,78.23
2018-01-31T04:58:44.775Z,78.28
2018-01-31T05:01:10.743Z,78.42
2018-01-31T05:03:39.685Z,78.65
2018-01-31T05:06:05.629Z,78.77
2018-01-31T05:08:33.458Z,78.80
2018-01-31T05:10:59.442Z,78.98
2018-01-31T05:13:29.210Z,78.72
2018-01-31T05:15:55.148Z,78.70
2018-01-31T05:18:22.714Z,78.81
2018-01-31T05:20:48.639Z,79.03
2018-01-31T05:23:14.580Z,79.17
2018-01-31T05:25:40.487Z,79.36
2018-01-31T05:28:06.427Z,79.76
2018-01-31T05:30:35.889Z,79.82
2018-01-31T05:33:01.792Z,80.11
2018-01-31T05:35:29.589Z,80.28
2018-01-31T05:37:55.550Z,80.17
2018-01-31T05:40:25.166Z,80.16
2018-01-31T05:42:51.096Z,80.46
2018-01-31T05:45:20.158Z,80.59
2018-01-31T05:47:47.125Z,80.49
2018-01-31T05:50:13.195Z,80.41
2018-01-31T05:52:39.183Z,80.40
2018-01-31T05:55:08.068Z,80.24
2018-01-31T05:57:33.985Z,80.37
2018-01-31T05:59:59.910Z,80.50
2018-01-31T06:02:25.823Z,80.72
2018-01-31T06:04:51.756Z,80.24
2018-01-31T06:07:21.144Z,80.46
2018-01-31T06:09:47.116Z,80.22
2018-01-31T06:12:15.111Z,79.98
2018-01-31T06:14:41.033Z,79.65
2018-01-31T06:17:10.318Z,79.43
2018-01-31T06:19:36.263Z,79.52
2018-01-31T06:22:04.604Z,79.23
2018-01-31T06:24:30.526Z,78.95
2018-01-31T06:26:59.682Z,78.79
2018-01-31T06:29:25.609Z,79.02
2018-01-31T06:31:54.677Z,78.92
2018-01-31T06:34:20.613Z,78.95
2018-01-31T06:36:46.557Z,79.19
2018-01-31T06:39:12.489Z,79.06
2018-01-31T06:41:38.415Z,79.14
2018-01-31T06:44:04.844Z,79.27
2018-01-31T06:46:30.758Z,79.41
2018-01-31T06:48:59.544Z,79.41
2018-01-31T06:51:25.657Z,79.18
2018-01-31T06:53:55.113Z,79.10
2018-01-31T06:56:21.109Z,79.10
2018-01-31T06:58:50.806Z,78.54
2018-01-31T07:01:16.749Z,78.57
2018-01-31T07:03:43.756Z,78.54
2018-01-31T07:06:09.705Z,78.26
2018-01-31T07:08:38.577Z,78.39
2018-01-31T07:11:04.539Z,77.98
2018-01-31T07:13:30.468Z,77.88
2018-01-31T07:15:56.425Z,77.49
2018-01-31T07:18:22.381Z,77.80
2018-01-31T07:20:50.199Z,77.61
2018-01-31T07:23:16.169Z,77.77
2018-01-31T07:25:44.895Z,77.45
2018-01-31T07:28:10.810Z,77.69
2018-01-31T07:30:40.742Z,78.01
2018-01-31T07:33:06.655Z,77.95
2018-01-31T07:35:35.957Z,77.85
2018-01-31T07:38:01.881Z,77.72
2018-01-31T07:40:28.910Z,77.58
2018-01-31T07:42:54.841Z,77.43
2018-01-31T07:45:24.350Z,77.53
2018-01-31T07:47:53.832Z,77.34
2018-01-31T07:50:19.775Z,77.32
2018-01-31T07:52:45.720Z,77.20
2018-01-31T07:55:11.623Z,77.60
2018-01-31T07:57:37.564Z,77.47
2018-01-31T08:00:03.502Z,77.06
2018-01-31T08:02:30.387Z,76.95
2018-01-31T08:04:56.315Z,77.17
2018-01-31T08:07:25.354Z,77.04
2018-01-31T08:09:51.259Z,77.10
2018-01-31T08:12:20.317Z,76.94
2018-01-31T08:14:46.251Z,76.81
2018-01-31T08:17:15.547Z,76.72
2018-01-31T08:19:41.474Z,76.70
2018-01-31T08:22:10.811Z,76.98
2018-01-31T08:24:36.741Z,77.19
2018-01-31T08:27:02.740Z,77.12
2018-01-31T08:29:28.667Z,76.64
2018-01-31T08:31:54.635Z,76.81
2018-01-31T08:34:20.553Z,76.78
2018-01-31T08:36:46.469Z,76.49
2018-01-31T08:39:15.493Z,76.59
2018-01-31T08:41:41.418Z,76.65
2018-01-31T08:44:10.232Z,76.76
2018-01-31T08:46:36.157Z,76.36
2018-01-31T08:49:04.946Z,76.50
2018-01-31T08:51:30.864Z,76.54
2018-01-31T08:54:01.359Z,76.27
2018-01-31T08:56:27.286Z,76.51
2018-01-31T08:58:54.947Z,76.24
2018-01-31T09:01:20.854Z,76.52
2018-01-31T09:03:46.767Z,76.11
2018-01-31T09:06:12.708Z,75.64
2018-01-31T09:08:38.625Z,75.42
2018-01-31T09:11:07.608Z,75.47
2018-01-31T09:13:33.524Z,74.69
2018-01-31T09:16:01.463Z,74.84
2018-01-31T09:18:27.402Z,75.06
2018-01-31T09:20:56.764Z,75.11
2018-01-31T09:23:22.686Z,75.17
2018-01-31T09:25:51.878Z,74.81
2018-01-31T09:28:17.824Z,74.35
2018-01-31T09:30:44.832Z,74.56
2018-01-31T09:33:10.775Z,74.46
2018-01-31T09:35:40.603Z,74.08
2018-01-31T09:38:06.541Z,74.13
2018-01-31T09:40:32.460Z,73.61
2018-01-31T09:42:58.372Z,73.52
2018-01-31T09:45:24.326Z,73.51
2018-01-31T09:47:54.327Z,73.30
2018-01-31T09:50:20.255Z,73.43
2018-01-31T09:52:46.189Z,73.19
2018-01-31T09:55:12.102Z,72.82
2018-01-31T09:57:41.595Z,72.08
2018-01-31T10:00:07.536Z,72.02
2018-01-31T10:02:37.366Z,71.79
2018-01-31T10:05:03.339Z,71.40
2018-01-31T10:07:31.036Z,71.28
2018-01-31T10:09:56.974Z,71.12
2018-01-31T10:12:26.545Z,70.86
2018-01-31T10:14:52.439Z,70.71
2018-01-31T10:17:18.404Z,71.17
2018-01-31T10:19:44.310Z,70.82
2018-01-31T10:22:10.256Z,69.92
2018-01-31T10:24:37.140Z,69.47
2018-01-31T10:27:03.123Z,70.03
2018-01-31T10:29:32.523Z,70.16
2018-01-31T10:31:58.456Z,70.18
2018-01-31T10:34:26.208Z,69.55
2018-01-31T10:36:52.153Z,69.95
2018-01-31T10:39:20.945Z,69.62
2018-01-31T10:41:46.862Z,69.28
2018-01-31T10:44:15.639Z,69.66
2018-01-31T10:46:41.559Z,69.25
2018-01-31T10:49:10.300Z,69.96
2018-01-31T10:51:36.226Z,70.19
2018-01-31T10:58:54.122Z,70.43
2018-01-31T11:01:23.266Z,70.96
2018-01-31T11:03:49.180Z,71.00
2018-01-31T11:06:18.276Z,70.87
2018-01-31T11:08:44.216Z,70.81
2018-01-31T11:11:11.340Z,71.46
2018-01-31T11:13:37.309Z,71.79
2018-01-31T11:16:06.756Z,71.67
2018-01-31T11:18:32.696Z,71.88
2018-01-31T11:21:02.203Z,71.83
2018-01-31T11:23:28.105Z,72.25
2018-01-31T11:25:57.362Z,72.20
2018-01-31T11:28:23.296Z,71.90
2018-01-31T11:30:49.228Z,72.11
2018-01-31T11:33:15.176Z,71.58
2018-01-31T11:35:41.096Z,71.46
2018-01-31T11:38:07.051Z,70.66
2018-01-31T11:40:32.973Z,71.03
2018-01-31T11:45:29.775Z,69.86
2018-01-31T11:47:57.366Z,69.09
2018-01-31T11:50:23.315Z,69.62
2018-01-31T11:52:52.324Z,69.79
2018-01-31T11:55:18.269Z,70.27
2018-01-31T11:57:47.266Z,69.90
2018-01-31T12:00:13.238Z,70.14
2018-01-31T12:02:42.561Z,70.13
2018-01-31T12:05:08.501Z,70.19
2018-01-31T12:07:34.412Z,69.83
2018-01-31T12:10:00.411Z,70.10
2018-01-31T12:12:38.889Z,70.45
2018-01-31T12:15:17.286Z,70.40
2018-01-31T12:17:43.196Z,70.67
2018-01-31T12:20:21.594Z,70.44
2018-01-31T12:23:00.039Z,70.43
2018-01-31T12:25:38.472Z,71.02
2018-01-31T12:28:16.577Z,70.46
2018-01-31T12:30:54.881Z,70.65
2018-01-31T12:33:33.172Z,71.12
2018-01-31T12:36:11.484Z,71.11
2018-01-31T12:38:49.857Z,70.21
2018-01-31T12:41:15.636Z,70.46
2018-01-31T12:43:41.407Z,70.34
2018-01-31T12:46:19.756Z,69.79
2018-01-31T12:48:58.195Z,69.87
2018-01-31T12:51:39.669Z,69.99
2018-01-31T12:54:17.858Z,68.82
2018-01-31T12:56:56.167Z,68.65
2018-01-31T12:59:34.528Z,69.12
2018-01-31T13:02:12.869Z,69.05
2018-01-31T13:04:51.109Z,69.42
2018-01-31T13:07:20.698Z,69.26
2018-01-31T13:10:02.818Z,69.20
2018-01-31T13:12:41.009Z,69.56
2018-01-31T13:15:19.482Z,69.34
2018-01-31T13:17:56.608Z,69.93
2018-01-31T13:20:35.004Z,69.70
2018-01-31T13:23:00.969Z,68.11
2018-01-31T13:25:39.392Z,67.41
2018-01-31T13:28:23.956Z,66.85
2018-01-31T13:34:03.992Z,64.56
2018-01-31T13:36:42.296Z,64.42
2018-01-31T13:39:23.471Z,65.52
2018-01-31T13:42:01.723Z,66.89
2018-01-31T13:44:39.997Z,67.42
2018-01-31T13:47:18.314Z,67.95
2018-01-31T13:49:56.608Z,68.24
2018-01-31T13:52:34.769Z,68.38
2018-01-31T13:55:13.058Z,69.13
2018-01-31T14:00:53.279Z,69.89
2018-01-31T14:03:31.592Z,70.01
2018-01-31T14:06:09.915Z,70.60
2018-01-31T14:11:50.994Z,70.28
2018-01-31T14:14:29.362Z,70.82
2018-01-31T14:17:07.552Z,70.47
2018-01-31T14:19:45.699Z,70.47
2018-01-31T14:22:23.946Z,70.68
2018-01-31T14:25:02.367Z,70.34
2018-01-31T14:27:40.717Z,70.24
2018-01-31T14:30:19.020Z,68.86
2018-01-31T14:32:57.293Z,68.48
2018-01-31T14:35:35.623Z,67.90
2018-01-31T14:38:01.386Z,68.17
2018-01-31T14:40:27.094Z,68.74
2018-01-31T14:42:52.820Z,69.15
2018-01-31T14:45:18.519Z,69.22
2018-01-31T14:47:44.278Z,69.76
2018-01-31T14:50:10.092Z,70.57
2018-01-31T14:52:35.845Z,70.77
2018-01-31T14:55:01.709Z,70.87
2018-01-31T14:57:27.466Z,71.53
2018-01-31T14:59:53.278Z,71.24
2018-01-31T15:02:19.050Z,71.42
2018-01-31T15:04:44.870Z,71.42
2018-01-31T15:07:10.660Z,72.31
2018-01-31T15:09:36.426Z,72.39
2018-01-31T15:12:02.232Z,72.52
2018-01-31T15:14:27.996Z,72.58
2018-01-31T15:16:53.776Z,72.89
2018-01-31T15:19:19.583Z,72.69
2018-01-31T15:21:45.330Z,72.90
2018-01-31T15:24:11.129Z,73.05
2018-01-31T15:26:36.924Z,72.88
2018-01-31T15:29:02.712Z,73.08
2018-01-31T15:31:28.581Z,73.09
2018-01-31T15:33:54.477Z,73.03
2018-01-31T15:36:20.238Z,73.09
2018-01-31T15:38:46.011Z,73.30
2018-01-31T15:41:11.806Z,73.26
2018-01-31T15:43:37.568Z,73.49
2018-01-31T15:46:03.441Z,73.50
2018-01-31T15:48:29.216Z,73.53
2018-01-31T15:50:54.992Z,73.72
2018-01-31T15:53:20.759Z,73.75
2018-01-31T15:55:46.531Z,73.84
2018-01-31T15:58:12.287Z,73.80
2018-01-31T16:00:38.070Z,73.82
2018-01-31T16:03:03.868Z,73.94
2018-01-31T16:05:29.635Z,73.74
2018-01-31T16:07:55.391Z,73.76
2018-01-31T16:10:21.192Z,73.94
2018-01-31T16:12:46.953Z,74.06
2018-01-31T16:15:12.784Z,74.07
2018-01-31T16:17:38.708Z,73.87
2018-01-31T16:20:17.164Z,73.73
2018-01-31T16:22:43.066Z,73.55
2018-01-31T16:25:08.963Z,73.32
2018-01-31T16:27:47.228Z,73.39
2018-01-31T16:30:20.347Z,73.34
2018-01-31T16:35:48.326Z,73.03
2018-01-31T16:38:16.196Z,72.96
2018-01-31T16:40:42.098Z,73.22
2018-01-31T16:43:11.982Z,73.79
2018-01-31T16:45:37.898Z,74.35
2018-01-31T16:48:04.765Z,74.00
2018-01-31T16:50:30.701Z,74.91
2018-01-31T16:53:00.365Z,74.77
2018-01-31T16:55:26.463Z,75.92
2018-01-31T16:57:54.333Z,76.17
2018-01-31T17:00:20.255Z,76.65
2018-01-31T17:02:49.038Z,77.97
2018-01-31T17:05:15.014Z,79.52
2018-01-31T17:07:43.914Z,80.36
2018-01-31T17:10:09.820Z,80.71
2018-01-31T17:12:39.280Z,80.93
2018-01-31T17:15:05.220Z,81.44
2018-01-31T17:17:34.893Z,82.53
2018-01-31T17:20:00.826Z,83.00
2018-01-31T17:22:26.763Z,83.31
2018-01-31T17:24:52.706Z,83.86
2018-01-31T17:27:18.638Z,83.94
2018-01-31T17:29:45.528Z,84.06
2018-01-31T17:32:11.510Z,84.09
2018-01-31T17:34:40.734Z,83.66
2018-01-31T17:37:06.668Z,82.83
2018-01-31T17:39:35.655Z,83.60
2018-01-31T17:42:01.681Z,83.27
2018-01-31T17:44:30.673Z,82.90
2018-01-31T17:46:56.635Z,82.93
2018-01-31T17:49:23.845Z,83.12
2018-01-31T17:51:49.762Z,83.22
2018-01-31T17:54:18.525Z,82.51
2018-01-31T17:56:44.552Z,82.18
2018-01-31T17:59:10.442Z,82.33
2018-01-31T18:01:36.354Z,83.49
2018-01-31T18:04:02.289Z,84.43
2018-01-31T18:06:31.514Z,85.05
2018-01-31T18:08:57.448Z,84.41
2018-01-31T18:11:26.466Z,85.34
2018-01-31T18:13:52.383Z,85.13
2018-01-31T18:16:19.980Z,85.28
2018-01-31T18:18:45.916Z,85.87
2018-01-31T18:21:15.159Z,85.35
2018-01-31T18:23:41.074Z,85.47
2018-01-31T18:26:10.311Z,86.39
2018-01-31T18:28:36.226Z,86.02
2018-01-31T18:31:05.395Z,85.92
2018-01-31T18:33:31.326Z,86.63
2018-01-31T18:35:57.262Z,87.23
2018-01-31T18:38:23.233Z,87.65
2018-01-31T18:40:49.145Z,87.76
2018-01-31T18:43:16.191Z,87.54
2018-01-31T18:45:42.122Z,87.50
2018-01-31T18:48:12.060Z,87.59
2018-01-31T18:50:37.970Z,87.96
2018-01-31T18:53:05.096Z,88.30
2018-01-31T18:55:31.022Z,88.00
2018-01-31T18:58:00.208Z,88.10
2018-01-31T19:00:26.114Z,87.76
2018-01-31T19:02:55.431Z,87.40
2018-01-31T19:05:21.370Z,87.29
2018-01-31T19:07:50.523Z,88.33
2018-01-31T19:10:16.432Z,88.39
2018-01-31T19:12:42.376Z,89.09
2018-01-31T19:15:08.295Z,88.83
2018-01-31T19:17:34.224Z,88.16
2018-01-31T19:20:01.042Z,88.57
2018-01-31T19:22:26.934Z,88.21
2018-01-31T19:24:56.666Z,88.80
2018-01-31T19:27:22.568Z,89.20
2018-01-31T19:29:51.611Z,89.67
2018-01-31T19:32:17.514Z,89.11
2018-01-31T19:34:46.844Z,89.92
2018-01-31T19:37:12.762Z,89.73
2018-01-31T19:39:40.255Z,89.05
2018-01-31T19:42:06.157Z,89.71
2018-01-31T19:44:35.412Z,89.18
2018-01-31T19:47:01.330Z,89.95
2018-01-31T19:49:27.285Z,89.16
2018-01-31T19:51:53.232Z,89.73
2018-01-31T19:54:19.210Z,89.40
2018-01-31T19:56:46.383Z,89.13
2018-01-31T19:59:12.298Z,89.73
2018-01-31T20:01:41.253Z,89.70
2018-01-31T20:04:07.192Z,89.59
2018-01-31T20:06:36.603Z,89.50
2018-01-31T20:09:02.696Z,89.48
2018-01-31T20:11:31.874Z,89.80
2018-01-31T20:13:57.821Z,90.16
2018-01-31T20:16:25.388Z,89.53
2018-01-31T20:18:51.313Z,90.24
2018-01-31T20:21:20.724Z,89.72
2018-01-31T20:23:46.671Z,89.79
2018-01-31T20:26:12.661Z,90.39
2018-01-31T20:28:38.648Z,90.34
2018-01-31T20:31:04.589Z,89.96
2018-01-31T20:33:31.868Z,90.71
2018-01-31T20:35:57.793Z,90.21
2018-01-31T20:38:27.389Z,90.36
2018-01-31T20:40:53.363Z,89.76
2018-01-31T20:43:22.402Z,89.63
2018-01-31T20:45:48.498Z,90.27
2018-01-31T20:48:15.778Z,90.06
2018-01-31T20:50:41.682Z,90.40
2018-01-31T20:53:10.506Z,90.27
2018-01-31T20:55:36.441Z,90.31
2018-01-31T20:58:05.345Z,89.97
2018-01-31T21:00:31.284Z,89.85
2018-01-31T21:02:57.303Z,90.04
2018-01-31T21:05:23.278Z,90.35
2018-01-31T21:07:49.225Z,90.34
2018-01-31T21:10:17.051Z,90.46
2018-01-31T21:12:42.967Z,90.11
2018-01-31T21:15:12.853Z,90.23
2018-01-31T21:17:38.841Z,90.48
2018-01-31T21:20:06.721Z,90.87
2018-01-31T21:22:32.707Z,90.71
2018-01-31T21:25:02.628Z,90.08
2018-01-31T21:27:28.574Z,90.32
2018-01-31T21:29:56.238Z,90.44
2018-01-31T21:32:22.193Z,90.29
2018-01-31T21:34:51.249Z,90.64
2018-01-31T21:37:17.216Z,90.85
2018-01-31T21:39:43.154Z,90.70
2018-01-31T21:42:09.107Z,90.27
2018-01-31T21:44:35.054Z,90.70
2018-01-31T21:47:02.448Z,90.51
2018-01-31T21:49:28.392Z,90.74
2018-01-31T21:51:57.806Z,91.23
2018-01-31T21:54:23.762Z,90.66
2018-01-31T21:56:53.144Z,90.58
2018-01-31T21:59:19.060Z,90.07
2018-01-31T22:01:46.606Z,90.41
2018-01-31T22:04:12.520Z,90.55
2018-01-31T22:06:44.742Z,90.79
2018-01-31T22:09:10.676Z,89.98
2018-01-31T22:11:36.620Z,90.60
2018-01-31T22:14:02.563Z,90.19
2018-01-31T22:16:28.516Z,90.01
2018-01-31T22:18:54.470Z,89.67
2018-01-31T22:21:20.415Z,89.18
2018-01-31T22:23:47.478Z,89.81
2018-01-31T22:26:13.388Z,89.50
2018-01-31T22:28:42.314Z,89.61
2018-01-31T22:31:08.259Z,89.63
2018-01-31T22:33:37.231Z,89.50
2018-01-31T22:36:03.149Z,89.65
2018-01-31T22:38:32.764Z,89.66
2018-01-31T22:40:58.694Z,89.42
2018-01-31T22:43:27.751Z,89.82
2018-01-31T22:45:53.661Z,89.38
2018-01-31T22:48:21.279Z,90.08
2018-01-31T22:50:47.216Z,89.82
2018-01-31T22:53:13.125Z,89.69
2018-01-31T22:55:39.060Z,89.65
2018-01-31T22:58:05.021Z,89.80
2018-01-31T23:00:34.227Z,90.57
2018-01-31T23:03:00.149Z,90.51
2018-01-31T23:05:28.084Z,90.63
2018-01-31T23:07:54.027Z,90.48
2018-01-31T23:10:23.973Z,90.45
2018-01-31T23:12:56.152Z,90.46
2018-01-31T23:15:22.068Z,90.52
2018-01-31T23:17:54.109Z,90.12
2018-01-31T23:20:20.037Z,90.60
2018-01-31T23:22:45.987Z,90.75
2018-01-31T23:25:11.915Z,90.94
2018-01-31T23:27:37.868Z,90.58
2018-01-31T23:30:03.800Z,91.12
2018-01-31T23:32:29.718Z,91.17
2018-01-31T23:34:55.638Z,91.00
2018-01-31T23:37:21.578Z,90.78
2018-01-31T23:39:47.531Z,91.00
2018-01-31T23:42:13.477Z,90.85
2018-01-31T23:44:39.408Z,91.25
2018-01-31T23:47:08.962Z,90.90
2018-01-31T23:49:34.913Z,91.06
2018-01-31T23:52:02.657Z,90.93
2018-01-31T23:54:28.601Z,90.74
2018-01-31T23:56:58.016Z,90.39
2018-01-31T23:59:23.950Z,90.80
